Sidney, Illinois
Current Conditions -  °F | °C
As of 5:53 AM on Saturday 01 Nov 2014 (Local Time) from KCMI Reporting Station
Clear Clear  
Wind Chill: 20°   Ceiling: Unl
Heat Index: 31°   Visibility: 10mi
Dew Point: 23°   Wind: 15mph
Humidity: 72%   Direction: 340°NNW
Pressure: 30.35"   Gusts: NA
Location:  40.03°N, 88.07°W
Report Text: KCMI 011053Z 34013KT 10SM CLR M01/M05 A3035 RMK AO2 SLP285 T10061050 $
Loading
Personal Weather Stations






























Interactive Weather Map
Tropical Storm Tracking
New forecast layout! Learn more

10-Day Weather Forecast

Advertisements
Track Severe Weather on mobile